Sopot, Poland
Current Conditions -  °F | °C
As of 11:30 AM on Sunday 26 Oct 2014 (Local Time) from EPGD Reporting Station
Broken Clouds Broken Clouds  
Wind Chill: 46°   Ceiling: 3900
Heat Index: 48°   Visibility: 5mi
Dew Point: 43°   Wind: 6mph
Humidity: 82%   Direction: 240°WSW
Pressure: 30.27"   Gusts: NA
Location:  54.44°N, 18.56°E
Report Text: EPGD 260930Z 24005KT 180V300 8000 FEW013 BKN039 09/06 Q1025
Loading
Personal Weather Stations






























Interactive Weather Map
Tropical Storm Tracking
New forecast layout! Learn more

10-Day Weather Forecast

Advertisements
Track Severe Weather on mobile